createdAt,value
2017-10-25T00:01:09.429Z,80.46
2017-10-25T00:03:43.974Z,80.53
2017-10-25T00:06:18.505Z,80.11
2017-10-25T00:08:53.912Z,80.21
2017-10-25T00:11:28.135Z,79.93
2017-10-25T00:14:02.783Z,79.78
2017-10-25T00:16:37.407Z,80.05
2017-10-25T00:19:12.794Z,80.16
2017-10-25T00:21:47.357Z,79.90
2017-10-25T00:24:21.967Z,79.72
2017-10-25T00:26:56.395Z,79.79
2017-10-25T00:29:30.934Z,79.57
2017-10-25T00:32:05.379Z,79.93
2017-10-25T00:34:39.784Z,79.89
2017-10-25T00:37:14.327Z,79.78
2017-10-25T00:39:48.762Z,79.35
2017-10-25T00:42:23.126Z,79.21
2017-10-25T00:44:57.705Z,79.12
2017-10-25T00:47:32.189Z,79.28
2017-10-25T00:50:08.870Z,79.49
2017-10-25T00:52:43.432Z,79.82
2017-10-25T00:55:17.583Z,79.60
2017-10-25T00:57:51.866Z,79.74
2017-10-25T01:00:26.075Z,79.96
2017-10-25T01:03:00.711Z,79.99
2017-10-25T01:05:35.120Z,79.82
2017-10-25T01:08:09.682Z,80.09
2017-10-25T01:10:44.187Z,80.42
2017-10-25T01:13:19.446Z,80.68
2017-10-25T01:15:53.706Z,80.20
2017-10-25T01:18:28.294Z,80.20
2017-10-25T01:21:02.569Z,80.10
2017-10-25T01:23:36.822Z,80.36
2017-10-25T01:26:10.947Z,79.97
2017-10-25T01:28:45.296Z,79.86
2017-10-25T01:31:19.391Z,80.35
2017-10-25T01:33:53.573Z,79.65
2017-10-25T01:36:28.181Z,80.04
2017-10-25T01:39:02.325Z,79.59
2017-10-25T01:41:36.410Z,79.76
2017-10-25T01:44:10.626Z,79.32
2017-10-25T01:46:44.760Z,79.72
2017-10-25T01:49:18.921Z,79.27
2017-10-25T01:51:53.298Z,79.47
2017-10-25T01:54:27.529Z,79.82
2017-10-25T01:57:02.595Z,80.59
2017-10-25T01:59:36.894Z,80.08
2017-10-25T02:02:12.118Z,79.96
2017-10-25T02:04:46.793Z,79.86
2017-10-25T02:07:21.659Z,80.05
2017-10-25T02:09:56.202Z,80.58
2017-10-25T02:12:31.090Z,81.05
2017-10-25T02:15:07.899Z,81.89
2017-10-25T02:17:42.382Z,81.39
2017-10-25T02:20:16.923Z,80.87
2017-10-25T02:22:52.013Z,80.29
2017-10-25T02:25:26.603Z,79.69
2017-10-25T02:28:01.034Z,80.17
2017-10-25T02:30:35.494Z,79.94
2017-10-25T02:33:09.895Z,79.32
2017-10-25T02:35:44.349Z,78.72
2017-10-25T02:38:18.859Z,78.78
2017-10-25T02:40:53.334Z,79.73
2017-10-25T02:43:28.519Z,79.20
2017-10-25T02:46:03.103Z,79.58
2017-10-25T02:48:37.528Z,79.76
2017-10-25T02:51:11.962Z,80.05
2017-10-25T02:53:46.542Z,80.27
2017-10-25T02:56:21.063Z,79.19
2017-10-25T02:58:55.599Z,81.22
2017-10-25T03:01:30.499Z,80.72
2017-10-25T03:04:05.119Z,79.92
2017-10-25T03:06:39.590Z,81.50
2017-10-25T03:09:14.747Z,81.09
2017-10-25T03:11:49.381Z,81.83
2017-10-25T03:14:23.906Z,82.93
2017-10-25T03:16:58.369Z,81.49
2017-10-25T03:19:32.656Z,81.27
2017-10-25T03:22:07.034Z,81.22
2017-10-25T03:24:41.536Z,81.12
2017-10-25T03:27:15.999Z,80.89
2017-10-25T03:29:50.283Z,81.07
2017-10-25T03:32:25.083Z,79.38
2017-10-25T03:34:59.676Z,78.96
2017-10-25T03:37:34.139Z,79.36
2017-10-25T03:40:08.774Z,80.78
2017-10-25T03:42:43.187Z,81.55
2017-10-25T03:45:17.570Z,80.91
2017-10-25T03:47:52.112Z,80.76
2017-10-25T03:50:26.581Z,80.67
2017-10-25T03:53:01.587Z,79.88
2017-10-25T03:55:36.247Z,80.15
2017-10-25T03:58:10.758Z,78.49
2017-10-25T04:00:45.198Z,78.31
2017-10-25T04:03:19.658Z,79.39
2017-10-25T04:05:54.830Z,79.06
2017-10-25T04:08:29.268Z,78.45
2017-10-25T04:11:03.866Z,78.29
2017-10-25T04:13:38.379Z,78.02
2017-10-25T04:16:12.838Z,78.20
2017-10-25T04:18:47.472Z,77.44
2017-10-25T04:21:21.970Z,77.73
2017-10-25T04:23:56.498Z,77.96
2017-10-25T04:26:30.948Z,77.60
2017-10-25T04:29:05.479Z,77.72
2017-10-25T04:31:40.711Z,77.97
2017-10-25T04:34:15.246Z,78.97
2017-10-25T04:36:49.687Z,79.26
2017-10-25T04:39:24.236Z,79.75
2017-10-25T04:41:58.679Z,79.25
2017-10-25T04:44:33.103Z,79.26
2017-10-25T04:47:07.600Z,79.55
2017-10-25T04:49:42.051Z,80.37
2017-10-25T04:52:16.711Z,80.21
2017-10-25T04:54:51.135Z,80.06
2017-10-25T04:57:25.592Z,80.80
2017-10-25T05:00:00.023Z,79.90
2017-10-25T05:02:34.858Z,78.80
2017-10-25T05:05:11.522Z,79.17
2017-10-25T05:07:46.036Z,79.31
2017-10-25T05:10:20.498Z,80.34
2017-10-25T05:12:54.955Z,79.74
2017-10-25T05:15:29.374Z,79.28
2017-10-25T05:18:03.783Z,79.25
2017-10-25T05:20:38.831Z,80.42
2017-10-25T05:23:13.438Z,81.12
2017-10-25T05:25:48.974Z,80.76
2017-10-25T05:28:23.603Z,80.92
2017-10-25T05:30:58.099Z,80.49
2017-10-25T05:33:32.580Z,80.76
2017-10-25T05:36:07.033Z,81.57
2017-10-25T05:38:41.574Z,80.96
2017-10-25T05:41:17.001Z,81.43
2017-10-25T05:43:52.118Z,81.47
2017-10-25T05:46:26.722Z,81.36
2017-10-25T05:49:01.202Z,82.15
2017-10-25T05:51:35.780Z,82.74
2017-10-25T05:54:10.308Z,82.68
2017-10-25T05:56:44.761Z,82.68
2017-10-25T05:59:19.315Z,82.70
2017-10-25T06:01:53.718Z,82.45
2017-10-25T06:04:28.432Z,82.55
2017-10-25T06:07:02.848Z,82.53
2017-10-25T06:09:37.946Z,81.98
2017-10-25T06:12:12.602Z,81.98
2017-10-25T06:14:47.006Z,82.12
2017-10-25T06:17:22.140Z,82.20
2017-10-25T06:19:56.514Z,82.19
2017-10-25T06:22:30.952Z,82.04
2017-10-25T06:25:11.387Z,82.10
2017-10-25T06:27:46.039Z,81.88
2017-10-25T06:30:20.637Z,81.73
2017-10-25T06:32:56.084Z,81.86
2017-10-25T06:35:30.714Z,81.47
2017-10-25T06:38:05.259Z,81.07
2017-10-25T06:40:39.759Z,81.14
2017-10-25T06:43:14.126Z,80.70
2017-10-25T06:45:48.319Z,80.89
2017-10-25T06:48:22.876Z,80.22
2017-10-25T06:50:57.371Z,79.85
2017-10-25T06:53:31.918Z,79.81
2017-10-25T06:56:06.331Z,79.82
2017-10-25T06:58:40.900Z,79.59
2017-10-25T07:01:15.526Z,79.37
2017-10-25T07:03:50.235Z,78.96
2017-10-25T07:06:24.687Z,78.46
2017-10-25T07:08:59.117Z,78.16
2017-10-25T07:11:33.587Z,77.81
2017-10-25T07:14:08.186Z,77.67
2017-10-25T07:16:42.628Z,77.17
2017-10-25T07:19:17.092Z,76.41
2017-10-25T07:21:51.538Z,76.13
2017-10-25T07:24:26.051Z,75.94
2017-10-25T07:27:01.171Z,75.51
2017-10-25T07:29:35.704Z,74.27
2017-10-25T07:32:10.387Z,74.13
2017-10-25T07:34:44.793Z,73.97
2017-10-25T07:37:19.210Z,73.51
2017-10-25T07:39:53.698Z,73.08
2017-10-25T07:42:28.262Z,72.77
2017-10-25T07:47:42.513Z,72.34
2017-10-25T07:50:17.556Z,72.46
2017-10-25T07:52:51.983Z,73.22
2017-10-25T07:55:26.792Z,72.83
2017-10-25T07:58:01.271Z,71.92
2017-10-25T08:00:35.939Z,71.76
2017-10-25T08:03:10.958Z,72.04
2017-10-25T08:05:45.404Z,71.50
2017-10-25T08:08:19.939Z,71.12
2017-10-25T08:10:54.370Z,70.81
2017-10-25T08:13:28.947Z,70.66
2017-10-25T08:16:03.445Z,70.67
2017-10-25T08:18:37.954Z,70.87
2017-10-25T08:21:12.423Z,70.50
2017-10-25T08:23:46.918Z,69.78
2017-10-25T08:26:21.327Z,69.60
2017-10-25T08:28:55.758Z,69.42
2017-10-25T08:31:30.250Z,69.85
2017-10-25T08:34:04.447Z,68.91
2017-10-25T08:36:39.315Z,69.20
2017-10-25T08:39:14.011Z,69.34
2017-10-25T08:41:48.890Z,69.72
2017-10-25T08:44:23.428Z,69.61
2017-10-25T08:46:57.559Z,69.78
2017-10-25T08:49:32.118Z,69.43
2017-10-25T08:52:06.628Z,69.37
2017-10-25T08:54:41.142Z,69.93
2017-10-25T08:57:15.626Z,69.72
2017-10-25T08:59:50.118Z,70.49
2017-10-25T09:02:24.299Z,70.65
2017-10-25T09:04:58.918Z,70.75
2017-10-25T09:07:33.467Z,70.53
2017-10-25T09:10:09.837Z,70.83
2017-10-25T09:12:44.407Z,70.50
2017-10-25T09:15:18.892Z,70.21
2017-10-25T09:17:53.522Z,70.06
2017-10-25T09:20:27.939Z,70.11
2017-10-25T09:23:02.207Z,69.38
2017-10-25T09:25:36.677Z,68.37
2017-10-25T09:28:11.214Z,68.27
2017-10-25T09:30:45.631Z,68.07
2017-10-25T09:33:20.213Z,67.66
2017-10-25T09:35:54.739Z,68.06
2017-10-25T09:38:29.272Z,67.28
2017-10-25T09:41:03.732Z,67.61
2017-10-25T09:43:38.211Z,67.06
2017-10-25T09:46:12.697Z,66.74
2017-10-25T09:48:47.361Z,67.19
2017-10-25T09:51:21.776Z,66.32
2017-10-25T09:53:56.165Z,66.40
2017-10-25T09:56:30.654Z,66.25
2017-10-25T09:59:05.295Z,66.35
2017-10-25T10:01:39.794Z,66.60
2017-10-25T10:04:14.332Z,66.83
2017-10-25T10:06:48.978Z,67.14
2017-10-25T10:09:23.388Z,67.54
2017-10-25T10:11:58.077Z,67.92
2017-10-25T10:14:32.599Z,67.41
2017-10-25T10:17:06.998Z,67.10
2017-10-25T10:19:41.406Z,66.90
2017-10-25T10:22:15.935Z,65.73
2017-10-25T10:24:50.403Z,64.69
2017-10-25T10:27:24.867Z,60.75
2017-10-25T10:29:59.335Z,55.19
2017-10-25T10:32:33.845Z,52.36
2017-10-25T10:35:14.532Z,51.09
2017-10-25T10:37:49.048Z,50.00
2017-10-25T10:40:23.501Z,51.28
2017-10-25T10:42:57.889Z,52.16
2017-10-25T10:45:34.020Z,52.61
2017-10-25T10:48:08.558Z,53.83
2017-10-25T10:50:43.032Z,54.53
2017-10-25T10:53:17.632Z,54.81
2017-10-25T10:55:52.156Z,55.70
2017-10-25T10:58:26.653Z,55.67
2017-10-25T11:01:00.703Z,54.80
2017-10-25T11:03:35.154Z,55.90
2017-10-25T11:06:09.622Z,55.57
2017-10-25T11:08:44.636Z,55.70
2017-10-25T11:11:19.253Z,55.47
2017-10-25T11:13:53.871Z,55.33
2017-10-25T11:16:28.386Z,54.97
2017-10-25T11:19:03.761Z,53.51
2017-10-25T11:21:38.303Z,53.11
2017-10-25T11:24:12.851Z,52.72
2017-10-25T11:26:47.544Z,51.13
2017-10-25T11:29:22.077Z,52.69
2017-10-25T11:31:56.986Z,51.98
2017-10-25T11:34:31.486Z,51.55
2017-10-25T11:37:05.938Z,51.84
2017-10-25T11:39:40.489Z,52.34
2017-10-25T11:42:14.963Z,51.94
2017-10-25T11:44:49.646Z,51.55
2017-10-25T11:47:24.313Z,50.78
2017-10-25T11:49:58.840Z,49.42
2017-10-25T11:52:34.199Z,49.82
2017-10-25T11:55:09.021Z,50.28
2017-10-25T11:57:43.622Z,49.85
2017-10-25T12:00:19.029Z,49.35
2017-10-25T12:02:53.443Z,48.51
2017-10-25T12:05:27.864Z,48.46
2017-10-25T12:08:02.452Z,48.35
2017-10-25T12:10:37.084Z,47.98
2017-10-25T12:13:11.646Z,47.76
2017-10-25T12:15:45.987Z,48.28
2017-10-25T12:18:20.534Z,48.29
2017-10-25T12:20:55.065Z,47.92
2017-10-25T12:23:29.618Z,48.66
2017-10-25T12:26:04.103Z,49.79
2017-10-25T12:28:38.695Z,49.30
2017-10-25T12:31:13.269Z,50.30
2017-10-25T12:33:47.744Z,49.93
2017-10-25T12:36:22.002Z,50.78
2017-10-25T12:38:56.618Z,51.00
2017-10-25T12:41:34.811Z,50.43
2017-10-25T12:44:11.055Z,50.97
2017-10-25T12:46:46.127Z,51.32
2017-10-25T12:49:21.398Z,51.36
2017-10-25T12:51:56.661Z,51.14
2017-10-25T12:54:32.872Z,51.33
2017-10-25T12:57:07.438Z,51.81
2017-10-25T12:59:42.091Z,52.16
2017-10-25T13:02:16.550Z,52.16
2017-10-25T13:04:51.306Z,51.72
2017-10-25T13:07:25.902Z,52.32
2017-10-25T13:10:00.471Z,52.22
2017-10-25T13:12:48.347Z,52.06
2017-10-25T13:15:57.594Z,52.51
2017-10-25T13:18:41.359Z,53.09
2017-10-25T13:21:15.837Z,52.80
2017-10-25T13:23:50.423Z,52.93
2017-10-25T13:26:24.845Z,53.72
2017-10-25T13:28:59.383Z,53.92
2017-10-25T13:31:33.877Z,53.41
2017-10-25T13:34:08.425Z,53.39
2017-10-25T13:36:42.887Z,54.00
2017-10-25T13:39:17.408Z,54.04
2017-10-25T13:41:51.826Z,53.69
2017-10-25T13:44:26.510Z,54.18
2017-10-25T13:47:00.914Z,53.87
2017-10-25T13:49:35.358Z,53.91
2017-10-25T13:52:09.851Z,54.55
2017-10-25T13:54:45.301Z,54.84
2017-10-25T13:57:19.791Z,55.29
2017-10-25T13:59:54.358Z,55.90
2017-10-25T14:02:28.592Z,56.14
2017-10-25T14:05:08.973Z,56.11
2017-10-25T14:07:44.182Z,56.33
2017-10-25T14:13:05.849Z,56.55
2017-10-25T14:15:41.339Z,56.35
2017-10-25T14:18:15.763Z,56.01
2017-10-25T14:20:50.230Z,56.52
2017-10-25T14:23:25.759Z,56.81
2017-10-25T14:26:00.409Z,57.45
2017-10-25T14:28:42.165Z,57.73
2017-10-25T14:31:16.730Z,57.63
2017-10-25T14:33:51.163Z,57.56
2017-10-25T14:36:25.659Z,57.35
2017-10-25T14:39:00.175Z,58.08
2017-10-25T14:41:34.734Z,57.87
2017-10-25T14:44:09.119Z,57.79
2017-10-25T14:46:43.383Z,57.70
2017-10-25T14:49:17.836Z,57.10
2017-10-25T14:51:52.221Z,57.22
2017-10-25T14:54:26.914Z,57.12
2017-10-25T14:57:03.836Z,57.56
2017-10-25T14:59:39.346Z,58.19
2017-10-25T15:02:13.951Z,58.46
2017-10-25T15:04:48.485Z,58.46
2017-10-25T15:07:22.957Z,58.15
2017-10-25T15:09:58.151Z,58.62
2017-10-25T15:12:32.883Z,58.78
2017-10-25T15:15:14.665Z,58.49
2017-10-25T15:17:49.273Z,58.99
2017-10-25T15:20:35.247Z,58.61
2017-10-25T15:23:09.729Z,59.50
2017-10-25T15:25:44.618Z,59.68
2017-10-25T15:28:19.542Z,59.66
2017-10-25T15:30:53.995Z,60.05
2017-10-25T15:33:28.583Z,60.02
2017-10-25T15:36:03.551Z,60.12
2017-10-25T15:38:37.979Z,60.16
2017-10-25T15:41:12.069Z,60.26
2017-10-25T15:43:46.766Z,60.40
2017-10-25T15:46:21.411Z,60.52
2017-10-25T15:48:58.922Z,60.55
2017-10-25T15:51:33.589Z,60.58
2017-10-25T15:54:08.710Z,60.77
2017-10-25T15:56:43.291Z,60.71
2017-10-25T15:59:17.892Z,61.04
2017-10-25T16:01:52.340Z,61.22
2017-10-25T16:04:26.991Z,61.50
2017-10-25T16:07:01.373Z,61.64
2017-10-25T16:09:36.437Z,61.62
2017-10-25T16:12:11.538Z,61.63
2017-10-25T16:14:46.182Z,61.51
2017-10-25T16:17:20.626Z,61.26
2017-10-25T16:19:55.182Z,61.49
2017-10-25T16:22:29.667Z,61.39
2017-10-25T16:25:03.907Z,61.66
2017-10-25T16:27:43.799Z,61.73
2017-10-25T16:30:18.306Z,61.36
2017-10-25T16:32:52.888Z,61.29
2017-10-25T16:35:27.326Z,61.55
2017-10-25T16:38:02.012Z,61.38
2017-10-25T16:40:36.469Z,61.53
2017-10-25T16:43:10.702Z,61.82
2017-10-25T16:45:44.996Z,61.95
2017-10-25T16:48:19.375Z,62.75
2017-10-25T16:50:53.966Z,64.41
2017-10-25T16:53:28.403Z,63.74
2017-10-25T16:56:04.517Z,66.62
2017-10-25T16:58:38.937Z,66.77
2017-10-25T17:01:13.383Z,67.02
2017-10-25T17:03:47.734Z,67.41
2017-10-25T17:06:22.159Z,68.06
2017-10-25T17:08:56.595Z,69.27
2017-10-25T17:11:31.124Z,69.88
2017-10-25T17:14:05.590Z,70.57
2017-10-25T17:16:40.011Z,70.41
2017-10-25T17:19:15.007Z,70.51
2017-10-25T17:21:49.469Z,71.83
2017-10-25T17:24:24.059Z,72.30
2017-10-25T17:26:58.279Z,72.49
2017-10-25T17:29:32.835Z,72.91
2017-10-25T17:32:07.266Z,73.39
2017-10-25T17:34:41.549Z,74.05
2017-10-25T17:37:16.059Z,74.81
2017-10-25T17:39:50.522Z,75.94
2017-10-25T17:42:25.035Z,76.40
2017-10-25T17:44:59.638Z,76.01
2017-10-25T17:47:34.886Z,75.08
2017-10-25T17:50:09.447Z,75.00
2017-10-25T17:52:44.581Z,74.88
2017-10-25T17:55:19.331Z,75.04
2017-10-25T17:57:53.798Z,74.94
2017-10-25T18:00:28.283Z,74.95
2017-10-25T18:03:02.821Z,75.65
2017-10-25T18:05:37.220Z,78.12
2017-10-25T18:08:12.386Z,76.76
2017-10-25T18:10:46.871Z,76.00
2017-10-25T18:13:21.998Z,75.30
2017-10-25T18:15:57.300Z,76.31
2017-10-25T18:18:31.795Z,75.64
2017-10-25T18:21:06.259Z,76.47
2017-10-25T18:23:41.202Z,75.62
2017-10-25T18:26:15.815Z,75.70
2017-10-25T18:28:50.235Z,76.01
2017-10-25T18:31:27.275Z,76.27
2017-10-25T18:34:02.671Z,77.56
2017-10-25T18:36:37.247Z,77.50
2017-10-25T18:39:12.595Z,77.77
2017-10-25T18:41:47.117Z,77.86
2017-10-25T18:44:21.779Z,77.79
2017-10-25T18:46:56.342Z,75.97
2017-10-25T18:49:30.970Z,75.29
2017-10-25T18:52:05.605Z,74.77
2017-10-25T18:54:40.037Z,73.14
2017-10-25T18:57:14.551Z,72.82
2017-10-25T18:59:49.198Z,72.90
2017-10-25T19:02:25.127Z,72.87
2017-10-25T19:04:59.628Z,72.93
2017-10-25T19:07:34.708Z,72.65
2017-10-25T19:10:11.477Z,73.48
2017-10-25T19:12:46.042Z,74.52
2017-10-25T19:15:20.445Z,73.73
2017-10-25T19:17:55.542Z,73.34
2017-10-25T19:20:30.658Z,73.73
2017-10-25T19:23:06.160Z,73.86
2017-10-25T19:25:40.708Z,73.98
2017-10-25T19:28:15.263Z,74.64
2017-10-25T19:30:49.804Z,74.26
2017-10-25T19:33:24.231Z,73.98
2017-10-25T19:35:58.728Z,73.32
2017-10-25T19:38:33.126Z,73.30
2017-10-25T19:41:07.517Z,71.73
2017-10-25T19:43:42.786Z,69.94
2017-10-25T19:46:17.514Z,69.60
2017-10-25T19:48:53.263Z,69.34
2017-10-25T19:51:28.638Z,69.84
2017-10-25T19:54:03.238Z,69.00
2017-10-25T19:56:37.767Z,69.26
2017-10-25T19:59:12.159Z,69.79
2017-10-25T20:01:46.830Z,70.34
2017-10-25T20:04:21.643Z,70.56
2017-10-25T20:06:56.086Z,69.04
2017-10-25T20:09:32.035Z,68.28
2017-10-25T20:12:06.610Z,67.93
2017-10-25T20:14:41.047Z,67.33
2017-10-25T20:17:16.430Z,66.59
2017-10-25T20:19:50.986Z,66.19
2017-10-25T20:22:25.403Z,65.47
2017-10-25T20:25:00.060Z,65.83
2017-10-25T20:27:34.517Z,65.90
2017-10-25T20:30:09.550Z,66.49
2017-10-25T20:32:44.182Z,66.78
2017-10-25T20:35:18.643Z,67.17
2017-10-25T20:37:53.707Z,67.62
2017-10-25T20:40:28.287Z,68.17
2017-10-25T20:43:02.743Z,68.56
2017-10-25T20:45:37.171Z,68.40
2017-10-25T20:48:11.720Z,67.66
2017-10-25T20:50:46.343Z,67.35
2017-10-25T20:53:20.879Z,67.84
2017-10-25T20:55:55.281Z,67.51
2017-10-25T20:58:30.011Z,67.43
2017-10-25T21:01:04.531Z,67.46
2017-10-25T21:03:39.892Z,67.71
2017-10-25T21:06:14.451Z,67.49
2017-10-25T21:08:49.027Z,67.75
2017-10-25T21:11:23.700Z,67.88
2017-10-25T21:13:58.223Z,67.93
2017-10-25T21:16:33.211Z,68.03
2017-10-25T21:19:07.846Z,68.13
2017-10-25T21:21:42.302Z,68.43
2017-10-25T21:24:16.811Z,68.59
2017-10-25T21:26:51.278Z,68.41
2017-10-25T21:29:25.885Z,67.80
2017-10-25T21:32:00.642Z,67.50
2017-10-25T21:34:35.148Z,67.79
2017-10-25T21:37:09.647Z,67.64
2017-10-25T21:39:44.111Z,68.75
2017-10-25T21:42:18.544Z,69.19
2017-10-25T21:44:53.112Z,69.11
2017-10-25T21:47:27.528Z,68.52
2017-10-25T21:50:01.960Z,68.69
2017-10-25T21:52:36.412Z,69.24
2017-10-25T21:55:10.889Z,69.49
2017-10-25T21:57:45.454Z,69.96
2017-10-25T22:00:19.960Z,70.36
2017-10-25T22:02:54.527Z,70.68
2017-10-25T22:05:29.397Z,71.05
2017-10-25T22:08:03.777Z,71.21
2017-10-25T22:10:38.290Z,71.62
2017-10-25T22:13:12.924Z,71.40
2017-10-25T22:15:47.380Z,71.64
2017-10-25T22:18:22.119Z,71.65
2017-10-25T22:20:56.887Z,71.99
2017-10-25T22:23:31.471Z,72.08
2017-10-25T22:26:06.007Z,72.46
2017-10-25T22:28:40.526Z,72.80
2017-10-25T22:31:16.536Z,73.12
2017-10-25T22:33:50.935Z,73.09
2017-10-25T22:36:26.227Z,73.25
2017-10-25T22:39:01.299Z,73.50
2017-10-25T22:41:36.234Z,73.59
2017-10-25T22:44:10.699Z,73.64
2017-10-25T22:46:45.137Z,73.75
2017-10-25T22:49:19.687Z,73.16
2017-10-25T22:51:54.166Z,73.17
2017-10-25T22:54:28.826Z,72.98
2017-10-25T22:57:03.259Z,72.71
2017-10-25T22:59:37.823Z,72.16
2017-10-25T23:02:11.977Z,71.92
2017-10-25T23:04:46.420Z,71.89
2017-10-25T23:07:20.811Z,71.06
2017-10-25T23:09:55.251Z,70.03
2017-10-25T23:12:29.790Z,69.37
2017-10-25T23:15:09.347Z,69.52
2017-10-25T23:17:43.744Z,69.62
2017-10-25T23:20:18.218Z,69.96
2017-10-25T23:22:52.715Z,69.57
2017-10-25T23:25:27.587Z,69.65
2017-10-25T23:28:02.067Z,71.25
2017-10-25T23:30:36.545Z,72.49
2017-10-25T23:33:11.461Z,72.58
2017-10-25T23:35:46.095Z,72.79
2017-10-25T23:38:21.860Z,72.74
2017-10-25T23:40:56.406Z,72.66
2017-10-25T23:43:31.067Z,72.71
2017-10-25T23:46:05.464Z,72.50
2017-10-25T23:48:40.070Z,72.37
2017-10-25T23:51:14.481Z,72.20
2017-10-25T23:53:49.014Z,72.35
2017-10-25T23:56:23.419Z,72.81
2017-10-25T23:58:57.844Z,73.10
